Página principal
METAR-TAF:

METAR-TAF

Aeroportos :

Rabat, Marrocos

latitude: 34-03N, longitude: 006-46W, altura: 84 m

Observação actual do tempo

O boletim foi feito há 20 minutos, às 17:30 UTC
Vento 14 kt de norte
Temperatura 20°C
Humidade 40%
Pressão 1016 hPa
Visibilidade: 8000 m

METAR: GMME 201730Z 01014KT 8000 NSC 20/06 Q1016 NOSIG

Hora: 17:50 (17:50 UTC)

Previsão

O boletim foi feito há 50 minutos, às 17:00 UTC
Previsão válida de 20 às 18 UTC a 21 às 24 UTC
Vento 13 kt de nor-nordeste
Visibilidade: 8000 m
Temporariamente
de 20 às 23 UTC a 21 às 07 UTC
Vento 17 kt de nordeste com rajadas de 30 kt

TAF: GMME 201700Z 2018/2124 03013KT 8000 NSC TEMPO 2023/2107 04017G30KT

Observações e previsões do tempo de mais de 4000 aeroportos (mensagens METAR e TAF).

As estações disponíveis são os pontos amarelos e vermelhos sobre o mapa.

Mova o rato sobre o mapa para ver o nome da estação.

Depois clique no ponto para visualizar as observações e previsões meteorológicas.

Para alterar o mapa : clique nos botões verdes com uma cruz preta para aumentar o zoom; no botão verde com uma pitada de zoom; ou nas setas verdes para mapas adjacentes.


METAR-TAF: